Baie Comeau — CFN6357 — position and weather

sailwx.info

Track history (hours):
 
Tides and Currents Weather Stations Pressure Air Temp Water Temp Dewpoint Dewpoint Depression Visibility Wind Speed Wind Dir Waves Ship Positions

Baie Comeau

Last reported at 2018-May-19 06:38 UTC. Time now 2018-May-26 10:16 UTC.
Position N 45°20' W 083°26'.

Length 225 m; draft 7.7 m.

Type: Cargo ship. MMSI: 316023808.

Date/timePositionNaut miles runAvg speedWind from/ knotsBaromVisibWave heightAir tempDewpointWater temp
2018-May-19 06:38N 45°20' W 083°26'1 7.6
2018-May-19 06:29N 45°21' W 083°26'611.6
2018-May-19 06:00N 45°25' W 083°32'612.6
2018-May-19 05:30N 45°28' W 083°40'612.7
2018-May-19 05:00N 45°31' W 083°48'712.6
2018-May-19 04:25N 45°34' W 083°58'612.6
2018-May-19 03:56N 45°37' W 084°05'612.4
2018-May-19 03:27N 45°40' W 084°13'511.4
2018-May-19 03:00N 45°41' W 084°20'612.2
2018-May-19 02:31N 45°42' W 084°28'612.5
2018-May-19 02:00N 45°46' W 084°36'712.4
2018-May-19 01:28N 45°49' W 084°44'612.3
2018-May-19 01:00N 45°49' W 084°52'612.5
2018-May-19 00:30N 45°50' W 085°01'510.9
2018-May-19 00:00N 45°48' W 085°09'611.1
2018-May-18 23:30N 45°43' W 085°12'612.7
2018-May-18 23:00N 45°38' W 085°17'612.6
2018-May-18 22:30N 45°33' W 085°23'612.6
2018-May-18 22:00N 45°28' W 085°28'612.7
2018-May-18 21:30N 45°23' W 085°33'612.8
2018-May-18 21:00N 45°17' W 085°39'712.9
2018-May-18 20:30N 45°12' W 085°44'612.9
2018-May-18 20:00N 45°07' W 085°50'8614.2
2018-May-18 14:00N 43°48' W 086°36'124 2.9 050 / 16995.0 13.9
2018-May-16 19:27N 45°49' W 085°56'512.4
2018-May-16 19:00N 45°50' W 085°49'612.0
2018-May-16 18:30N 45°53' W 085°41'612.3
2018-May-16 18:00N 45°54' W 085°32'612.2
2018-May-16 17:30N 45°53' W 085°23'612.4
2018-May-16 17:01N 45°52' W 085°15'612.3
2018-May-16 16:29N 45°51' W 085°06'612.2
2018-May-16 16:01N 45°50' W 084°57'612.1
2018-May-16 15:30N 45°49' W 084°49'611.9
2018-May-16 15:00N 45°48' W 084°40'612.2
2018-May-16 14:28N 45°44' W 084°33'2811.3
2018-May-16 12:02N 45°34' W 083°56'112.8
2018-May-16 11:58N 45°34' W 083°55'612.8
2018-May-16 11:30N 45°31' W 083°47'612.8
2018-May-16 11:01N 45°29' W 083°39'712.8
2018-May-16 10:30N 45°26' W 083°31'  
Track history (hours):
 
Tides and Currents Weather Stations Pressure Air Temp Water Temp Dewpoint Dewpoint Depression Visibility Wind Speed Wind Dir Waves Ship Positions

Baie Comeau

Last reported at 2018-May-19 06:38 UTC. Time now 2018-May-26 10:16 UTC.
Position N 45°20' W 083°26'.

Length 225 m; draft 7.7 m.

Type: Cargo ship. MMSI: 316023808.

Date/timePositionNaut miles runAvg speedWind from/ knotsBaromVisibWave heightAir tempDewpointWater temp
2018-May-19 06:38N 45°20' W 083°26'1 7.6
2018-May-19 06:29N 45°21' W 083°26'611.6
2018-May-19 06:00N 45°25' W 083°32'612.6
2018-May-19 05:30N 45°28' W 083°40'612.7
2018-May-19 05:00N 45°31' W 083°48'712.6
2018-May-19 04:25N 45°34' W 083°58'612.6
2018-May-19 03:56N 45°37' W 084°05'612.4
2018-May-19 03:27N 45°40' W 084°13'511.4
2018-May-19 03:00N 45°41' W 084°20'612.2
2018-May-19 02:31N 45°42' W 084°28'612.5
2018-May-19 02:00N 45°46' W 084°36'712.4
2018-May-19 01:28N 45°49' W 084°44'612.3
2018-May-19 01:00N 45°49' W 084°52'612.5
2018-May-19 00:30N 45°50' W 085°01'510.9
2018-May-19 00:00N 45°48' W 085°09'611.1
2018-May-18 23:30N 45°43' W 085°12'612.7
2018-May-18 23:00N 45°38' W 085°17'612.6
2018-May-18 22:30N 45°33' W 085°23'612.6
2018-May-18 22:00N 45°28' W 085°28'612.7
2018-May-18 21:30N 45°23' W 085°33'612.8
2018-May-18 21:00N 45°17' W 085°39'712.9
2018-May-18 20:30N 45°12' W 085°44'612.9
2018-May-18 20:00N 45°07' W 085°50'8614.2
2018-May-18 14:00N 43°48' W 086°36'124 2.9 050 / 16995.0 13.9
2018-May-16 19:27N 45°49' W 085°56'512.4
2018-May-16 19:00N 45°50' W 085°49'612.0
2018-May-16 18:30N 45°53' W 085°41'612.3
2018-May-16 18:00N 45°54' W 085°32'612.2
2018-May-16 17:30N 45°53' W 085°23'612.4
2018-May-16 17:01N 45°52' W 085°15'612.3
2018-May-16 16:29N 45°51' W 085°06'612.2
2018-May-16 16:01N 45°50' W 084°57'612.1
2018-May-16 15:30N 45°49' W 084°49'611.9
2018-May-16 15:00N 45°48' W 084°40'612.2
2018-May-16 14:28N 45°44' W 084°33'2811.3
2018-May-16 12:02N 45°34' W 083°56'112.8
2018-May-16 11:58N 45°34' W 083°55'612.8
2018-May-16 11:30N 45°31' W 083°47'612.8
2018-May-16 11:01N 45°29' W 083°39'712.8
2018-May-16 10:30N 45°26' W 083°31'  

Dump ship's entire track history